sensor_id;sensor_type;location;lat;lon;timestamp;P1;durP1;ratioP1;P2;durP2;ratioP2
52158;SDS011;38145;53.182;6.284;2022-09-17T00:01:06;12.25;;;2.47;;
52158;SDS011;38145;53.182;6.284;2022-09-17T00:03:34;18.83;;;2.97;;
52158;SDS011;38145;53.182;6.284;2022-09-17T00:06:01;19.25;;;2.92;;
52158;SDS011;38145;53.182;6.284;2022-09-17T00:08:30;14.43;;;3.03;;
52158;SDS011;38145;53.182;6.284;2022-09-17T00:10:56;17.60;;;3.13;;
52158;SDS011;38145;53.182;6.284;2022-09-17T00:13:22;21.35;;;3.70;;
52158;SDS011;38145;53.182;6.284;2022-09-17T00:15:48;21.38;;;3.78;;
52158;SDS011;38145;53.182;6.284;2022-09-17T00:18:16;16.60;;;2.67;;
52158;SDS011;38145;53.182;6.284;2022-09-17T00:20:43;15.38;;;2.92;;
52158;SDS011;38145;53.182;6.284;2022-09-17T00:23:11;18.45;;;3.50;;
52158;SDS011;38145;53.182;6.284;2022-09-17T00:25:38;24.08;;;3.53;;
52158;SDS011;38145;53.182;6.284;2022-09-17T00:28:06;20.27;;;3.38;;
52158;SDS011;38145;53.182;6.284;2022-09-17T00:30:32;14.63;;;2.70;;
52158;SDS011;38145;53.182;6.284;2022-09-17T00:32:58;23.73;;;3.75;;
52158;SDS011;38145;53.182;6.284;2022-09-17T00:35:24;20.80;;;2.60;;
52158;SDS011;38145;53.182;6.284;2022-09-17T00:37:50;19.02;;;2.65;;
52158;SDS011;38145;53.182;6.284;2022-09-17T00:40:16;19.70;;;4.07;;
52158;SDS011;38145;53.182;6.284;2022-09-17T00:42:43;20.13;;;2.42;;
52158;SDS011;38145;53.182;6.284;2022-09-17T00:45:09;12.00;;;2.22;;
52158;SDS011;38145;53.182;6.284;2022-09-17T00:47:40;15.85;;;3.15;;
52158;SDS011;38145;53.182;6.284;2022-09-17T00:52:40;14.32;;;2.50;;
52158;SDS011;38145;53.182;6.284;2022-09-17T00:55:12;13.95;;;2.55;;
52158;SDS011;38145;53.182;6.284;2022-09-17T00:57:43;13.95;;;2.72;;
52158;SDS011;38145;53.182;6.284;2022-09-17T01:00:11;17.10;;;2.28;;
52158;SDS011;38145;53.182;6.284;2022-09-17T01:02:38;18.88;;;3.05;;
52158;SDS011;38145;53.182;6.284;2022-09-17T01:05:05;18.60;;;2.42;;
52158;SDS011;38145;53.182;6.284;2022-09-17T01:07:35;16.50;;;2.72;;
52158;SDS011;38145;53.182;6.284;2022-09-17T01:15:41;17.80;;;3.47;;
52158;SDS011;38145;53.182;6.284;2022-09-17T01:21:04;14.20;;;2.75;;
52158;SDS011;38145;53.182;6.284;2022-09-17T01:23:50;15.52;;;2.42;;
52158;SDS011;38145;53.182;6.284;2022-09-17T01:26:33;18.13;;;3.53;;
52158;SDS011;38145;53.182;6.284;2022-09-17T01:29:25;17.23;;;3.13;;
52158;SDS011;38145;53.182;6.284;2022-09-17T01:32:08;24.70;;;3.55;;
52158;SDS011;38145;53.182;6.284;2022-09-17T01:34:44;15.90;;;3.22;;
52158;SDS011;38145;53.182;6.284;2022-09-17T01:40:03;19.20;;;3.88;;
52158;SDS011;38145;53.182;6.284;2022-09-17T01:45:07;10.27;;;2.78;;
52158;SDS011;38145;53.182;6.284;2022-09-17T01:47:41;11.23;;;3.10;;
52158;SDS011;38145;53.182;6.284;2022-09-17T01:50:16;13.00;;;2.28;;
52158;SDS011;38145;53.182;6.284;2022-09-17T01:52:48;16.38;;;4.07;;
52158;SDS011;38145;53.182;6.284;2022-09-17T01:55:17;18.55;;;3.65;;
52158;SDS011;38145;53.182;6.284;2022-09-17T01:57:49;18.88;;;3.80;;
52158;SDS011;38145;53.182;6.284;2022-09-17T02:00:20;17.15;;;3.33;;
52158;SDS011;38145;53.182;6.284;2022-09-17T02:02:47;14.32;;;2.88;;
52158;SDS011;38145;53.182;6.284;2022-09-17T02:08:07;17.05;;;2.50;;
52158;SDS011;38145;53.182;6.284;2022-09-17T02:10:38;13.32;;;2.00;;
52158;SDS011;38145;53.182;6.284;2022-09-17T02:13:10;17.88;;;2.53;;
52158;SDS011;38145;53.182;6.284;2022-09-17T02:15:44;12.98;;;3.17;;
52158;SDS011;38145;53.182;6.284;2022-09-17T02:18:23;17.55;;;3.70;;
52158;SDS011;38145;53.182;6.284;2022-09-17T02:20:56;20.42;;;3.22;;
52158;SDS011;38145;53.182;6.284;2022-09-17T02:23:33;18.75;;;3.08;;
52158;SDS011;38145;53.182;6.284;2022-09-17T02:26:05;16.98;;;2.05;;
52158;SDS011;38145;53.182;6.284;2022-09-17T02:31:06;12.55;;;2.30;;
52158;SDS011;38145;53.182;6.284;2022-09-17T02:33:32;14.48;;;2.45;;
52158;SDS011;38145;53.182;6.284;2022-09-17T02:38:27;18.02;;;2.30;;
52158;SDS011;38145;53.182;6.284;2022-09-17T02:41:02;16.42;;;2.47;;
52158;SDS011;38145;53.182;6.284;2022-09-17T02:43:55;19.58;;;2.45;;
52158;SDS011;38145;53.182;6.284;2022-09-17T02:46:44;12.77;;;2.50;;
52158;SDS011;38145;53.182;6.284;2022-09-17T02:49:31;21.50;;;2.70;;
52158;SDS011;38145;53.182;6.284;2022-09-17T02:55:08;13.40;;;2.70;;
52158;SDS011;38145;53.182;6.284;2022-09-17T03:00:19;10.05;;;1.88;;
52158;SDS011;38145;53.182;6.284;2022-09-17T03:02:49;11.00;;;2.60;;
52158;SDS011;38145;53.182;6.284;2022-09-17T03:05:21;14.20;;;2.13;;
52158;SDS011;38145;53.182;6.284;2022-09-17T03:07:49;18.52;;;3.08;;
52158;SDS011;38145;53.182;6.284;2022-09-17T03:10:16;14.82;;;3.00;;
52158;SDS011;38145;53.182;6.284;2022-09-17T03:12:43;15.87;;;2.37;;
52158;SDS011;38145;53.182;6.284;2022-09-17T03:15:09;16.95;;;3.13;;
52158;SDS011;38145;53.182;6.284;2022-09-17T03:17:35;14.60;;;2.10;;
52158;SDS011;38145;53.182;6.284;2022-09-17T03:20:01;16.42;;;2.80;;
52158;SDS011;38145;53.182;6.284;2022-09-17T03:22:27;17.85;;;2.95;;
52158;SDS011;38145;53.182;6.284;2022-09-17T03:24:53;18.95;;;2.78;;
52158;SDS011;38145;53.182;6.284;2022-09-17T03:27:19;14.73;;;2.70;;
52158;SDS011;38145;53.182;6.284;2022-09-17T03:29:45;11.00;;;2.05;;
52158;SDS011;38145;53.182;6.284;2022-09-17T03:32:11;11.88;;;2.10;;
52158;SDS011;38145;53.182;6.284;2022-09-17T03:34:37;10.35;;;1.88;;
52158;SDS011;38145;53.182;6.284;2022-09-17T03:37:03;9.35;;;1.90;;
52158;SDS011;38145;53.182;6.284;2022-09-17T03:39:29;11.10;;;2.35;;
52158;SDS011;38145;53.182;6.284;2022-09-17T03:41:55;10.38;;;2.08;;
52158;SDS011;38145;53.182;6.284;2022-09-17T03:44:21;13.15;;;3.47;;
52158;SDS011;38145;53.182;6.284;2022-09-17T03:46:48;12.77;;;1.50;;
52158;SDS011;38145;53.182;6.284;2022-09-17T03:49:14;12.35;;;1.77;;
52158;SDS011;38145;53.182;6.284;2022-09-17T03:51:40;7.68;;;1.73;;
52158;SDS011;38145;53.182;6.284;2022-09-17T03:54:06;11.20;;;1.45;;
52158;SDS011;38145;53.182;6.284;2022-09-17T03:56:32;10.63;;;1.73;;
52158;SDS011;38145;53.182;6.284;2022-09-17T03:58:58;9.93;;;1.85;;
52158;SDS011;38145;53.182;6.284;2022-09-17T04:01:25;10.68;;;1.88;;
52158;SDS011;38145;53.182;6.284;2022-09-17T04:03:52;22.38;;;2.55;;
52158;SDS011;38145;53.182;6.284;2022-09-17T04:06:18;11.88;;;1.98;;
52158;SDS011;38145;53.182;6.284;2022-09-17T04:08:44;14.82;;;2.42;;
52158;SDS011;38145;53.182;6.284;2022-09-17T04:11:10;15.32;;;2.72;;
52158;SDS011;38145;53.182;6.284;2022-09-17T04:13:35;12.25;;;2.35;;
52158;SDS011;38145;53.182;6.284;2022-09-17T04:16:01;12.93;;;2.25;;
52158;SDS011;38145;53.182;6.284;2022-09-17T04:18:27;15.88;;;2.58;;
52158;SDS011;38145;53.182;6.284;2022-09-17T04:20:53;14.25;;;2.30;;
52158;SDS011;38145;53.182;6.284;2022-09-17T04:23:19;14.15;;;2.53;;
52158;SDS011;38145;53.182;6.284;2022-09-17T04:25:45;24.45;;;3.63;;
52158;SDS011;38145;53.182;6.284;2022-09-17T04:28:11;14.75;;;3.30;;
52158;SDS011;38145;53.182;6.284;2022-09-17T04:30:37;18.00;;;3.28;;
52158;SDS011;38145;53.182;6.284;2022-09-17T04:33:03;14.52;;;2.63;;
52158;SDS011;38145;53.182;6.284;2022-09-17T04:35:29;13.02;;;2.50;;
52158;SDS011;38145;53.182;6.284;2022-09-17T04:37:55;12.40;;;2.30;;
52158;SDS011;38145;53.182;6.284;2022-09-17T04:40:22;14.90;;;1.90;;
52158;SDS011;38145;53.182;6.284;2022-09-17T04:42:51;14.38;;;2.38;;
52158;SDS011;38145;53.182;6.284;2022-09-17T04:45:18;12.25;;;2.17;;
52158;SDS011;38145;53.182;6.284;2022-09-17T04:47:44;15.50;;;2.72;;
52158;SDS011;38145;53.182;6.284;2022-09-17T04:50:10;10.90;;;1.90;;
52158;SDS011;38145;53.182;6.284;2022-09-17T04:52:36;13.27;;;2.35;;
52158;SDS011;38145;53.182;6.284;2022-09-17T04:55:02;12.40;;;2.55;;
52158;SDS011;38145;53.182;6.284;2022-09-17T04:57:28;9.40;;;1.83;;
52158;SDS011;38145;53.182;6.284;2022-09-17T04:59:54;11.43;;;2.35;;
52158;SDS011;38145;53.182;6.284;2022-09-17T05:02:20;18.55;;;2.78;;
52158;SDS011;38145;53.182;6.284;2022-09-17T05:04:45;13.50;;;3.78;;
52158;SDS011;38145;53.182;6.284;2022-09-17T05:07:11;17.92;;;3.20;;
52158;SDS011;38145;53.182;6.284;2022-09-17T05:09:37;12.80;;;2.30;;
52158;SDS011;38145;53.182;6.284;2022-09-17T05:12:02;14.13;;;2.70;;
52158;SDS011;38145;53.182;6.284;2022-09-17T05:14:28;15.45;;;2.28;;
52158;SDS011;38145;53.182;6.284;2022-09-17T05:16:54;12.70;;;2.28;;
52158;SDS011;38145;53.182;6.284;2022-09-17T05:19:20;18.45;;;2.75;;
52158;SDS011;38145;53.182;6.284;2022-09-17T05:21:46;16.77;;;2.70;;
52158;SDS011;38145;53.182;6.284;2022-09-17T05:24:11;15.50;;;3.08;;
52158;SDS011;38145;53.182;6.284;2022-09-17T05:26:37;14.35;;;2.72;;
52158;SDS011;38145;53.182;6.284;2022-09-17T05:29:03;15.52;;;2.63;;
52158;SDS011;38145;53.182;6.284;2022-09-17T05:31:28;11.05;;;2.58;;
52158;SDS011;38145;53.182;6.284;2022-09-17T05:33:56;12.32;;;2.25;;
52158;SDS011;38145;53.182;6.284;2022-09-17T05:38:49;6.53;;;1.55;;
52158;SDS011;38145;53.182;6.284;2022-09-17T05:41:15;5.55;;;1.23;;
52158;SDS011;38145;53.182;6.284;2022-09-17T05:43:41;10.52;;;2.22;;
52158;SDS011;38145;53.182;6.284;2022-09-17T05:46:07;9.43;;;1.48;;
52158;SDS011;38145;53.182;6.284;2022-09-17T05:48:33;6.30;;;1.08;;
52158;SDS011;38145;53.182;6.284;2022-09-17T05:50:59;5.13;;;0.85;;
52158;SDS011;38145;53.182;6.284;2022-09-17T05:53:25;7.60;;;1.90;;
52158;SDS011;38145;53.182;6.284;2022-09-17T05:55:54;7.03;;;1.30;;
52158;SDS011;38145;53.182;6.284;2022-09-17T05:58:21;7.32;;;1.67;;
52158;SDS011;38145;53.182;6.284;2022-09-17T06:00:47;8.85;;;1.58;;
52158;SDS011;38145;53.182;6.284;2022-09-17T06:03:13;7.25;;;1.42;;
52158;SDS011;38145;53.182;6.284;2022-09-17T06:05:41;8.68;;;2.28;;
52158;SDS011;38145;53.182;6.284;2022-09-17T06:08:07;11.98;;;2.10;;
52158;SDS011;38145;53.182;6.284;2022-09-17T06:10:35;11.07;;;2.00;;
52158;SDS011;38145;53.182;6.284;2022-09-17T06:13:02;9.18;;;1.65;;
52158;SDS011;38145;53.182;6.284;2022-09-17T06:15:30;8.07;;;2.22;;
52158;SDS011;38145;53.182;6.284;2022-09-17T06:17:55;11.43;;;2.45;;
52158;SDS011;38145;53.182;6.284;2022-09-17T06:20:22;12.68;;;2.20;;
52158;SDS011;38145;53.182;6.284;2022-09-17T06:22:48;6.55;;;1.35;;
52158;SDS011;38145;53.182;6.284;2022-09-17T06:25:19;8.52;;;1.50;;
52158;SDS011;38145;53.182;6.284;2022-09-17T06:27:45;6.10;;;1.40;;
52158;SDS011;38145;53.182;6.284;2022-09-17T06:30:10;11.82;;;1.67;;
52158;SDS011;38145;53.182;6.284;2022-09-17T06:32:36;10.00;;;2.78;;
52158;SDS011;38145;53.182;6.284;2022-09-17T06:35:03;10.45;;;1.75;;
52158;SDS011;38145;53.182;6.284;2022-09-17T06:37:29;14.40;;;2.45;;
52158;SDS011;38145;53.182;6.284;2022-09-17T06:39:56;8.57;;;1.63;;
52158;SDS011;38145;53.182;6.284;2022-09-17T06:42:24;11.10;;;1.42;;
52158;SDS011;38145;53.182;6.284;2022-09-17T06:44:50;12.55;;;1.83;;
52158;SDS011;38145;53.182;6.284;2022-09-17T06:47:16;11.50;;;1.75;;
52158;SDS011;38145;53.182;6.284;2022-09-17T06:49:42;10.15;;;1.50;;
52158;SDS011;38145;53.182;6.284;2022-09-17T06:52:08;14.05;;;1.75;;
52158;SDS011;38145;53.182;6.284;2022-09-17T06:54:34;16.70;;;2.67;;
52158;SDS011;38145;53.182;6.284;2022-09-17T06:56:59;12.82;;;2.13;;
52158;SDS011;38145;53.182;6.284;2022-09-17T06:59:25;15.68;;;2.20;;
52158;SDS011;38145;53.182;6.284;2022-09-17T07:01:52;15.73;;;1.98;;
52158;SDS011;38145;53.182;6.284;2022-09-17T07:04:18;14.85;;;2.70;;
52158;SDS011;38145;53.182;6.284;2022-09-17T07:06:44;12.18;;;1.92;;
52158;SDS011;38145;53.182;6.284;2022-09-17T07:09:10;12.30;;;2.78;;
52158;SDS011;38145;53.182;6.284;2022-09-17T07:11:37;8.13;;;1.73;;
52158;SDS011;38145;53.182;6.284;2022-09-17T07:14:03;8.35;;;1.33;;
52158;SDS011;38145;53.182;6.284;2022-09-17T07:16:31;7.20;;;1.40;;
52158;SDS011;38145;53.182;6.284;2022-09-17T07:19:00;8.10;;;1.83;;
52158;SDS011;38145;53.182;6.284;2022-09-17T07:21:27;9.77;;;1.85;;
52158;SDS011;38145;53.182;6.284;2022-09-17T07:23:53;9.63;;;2.55;;
52158;SDS011;38145;53.182;6.284;2022-09-17T07:26:19;12.05;;;2.00;;
52158;SDS011;38145;53.182;6.284;2022-09-17T07:28:45;6.68;;;1.88;;
52158;SDS011;38145;53.182;6.284;2022-09-17T07:31:11;14.57;;;1.75;;
52158;SDS011;38145;53.182;6.284;2022-09-17T07:33:37;12.43;;;1.67;;
52158;SDS011;38145;53.182;6.284;2022-09-17T07:36:05;7.55;;;1.17;;
52158;SDS011;38145;53.182;6.284;2022-09-17T07:38:32;13.15;;;1.75;;
52158;SDS011;38145;53.182;6.284;2022-09-17T07:41:00;11.07;;;1.70;;
52158;SDS011;38145;53.182;6.284;2022-09-17T07:43:27;11.50;;;1.77;;
52158;SDS011;38145;53.182;6.284;2022-09-17T07:45:57;14.00;;;1.73;;
52158;SDS011;38145;53.182;6.284;2022-09-17T07:48:25;10.70;;;1.10;;
52158;SDS011;38145;53.182;6.284;2022-09-17T07:50:51;10.32;;;2.10;;
52158;SDS011;38145;53.182;6.284;2022-09-17T07:53:17;6.40;;;1.10;;
52158;SDS011;38145;53.182;6.284;2022-09-17T07:55:49;8.02;;;1.33;;
52158;SDS011;38145;53.182;6.284;2022-09-17T07:58:17;5.95;;;1.05;;
52158;SDS011;38145;53.182;6.284;2022-09-17T08:00:43;6.13;;;1.30;;
52158;SDS011;38145;53.182;6.284;2022-09-17T08:03:09;7.60;;;1.08;;
52158;SDS011;38145;53.182;6.284;2022-09-17T08:05:34;6.25;;;1.65;;
52158;SDS011;38145;53.182;6.284;2022-09-17T08:08:00;4.72;;;1.30;;
52158;SDS011;38145;53.182;6.284;2022-09-17T08:10:26;12.77;;;1.63;;
52158;SDS011;38145;53.182;6.284;2022-09-17T08:12:54;10.05;;;1.50;;
52158;SDS011;38145;53.182;6.284;2022-09-17T08:15:21;7.72;;;0.95;;
52158;SDS011;38145;53.182;6.284;2022-09-17T08:17:47;12.85;;;1.92;;
52158;SDS011;38145;53.182;6.284;2022-09-17T08:20:14;10.80;;;1.85;;
52158;SDS011;38145;53.182;6.284;2022-09-17T08:22:40;5.68;;;1.17;;
52158;SDS011;38145;53.182;6.284;2022-09-17T08:25:07;11.52;;;1.77;;
52158;SDS011;38145;53.182;6.284;2022-09-17T08:27:34;11.38;;;1.52;;
52158;SDS011;38145;53.182;6.284;2022-09-17T08:30:03;8.43;;;1.80;;
52158;SDS011;38145;53.182;6.284;2022-09-17T08:32:30;12.82;;;1.70;;
52158;SDS011;38145;53.182;6.284;2022-09-17T08:34:56;12.98;;;1.23;;
52158;SDS011;38145;53.182;6.284;2022-09-17T08:37:22;13.77;;;1.90;;
52158;SDS011;38145;53.182;6.284;2022-09-17T08:39:48;8.27;;;1.35;;
52158;SDS011;38145;53.182;6.284;2022-09-17T08:42:20;8.18;;;1.60;;
52158;SDS011;38145;53.182;6.284;2022-09-17T08:44:56;4.25;;;1.08;;
52158;SDS011;38145;53.182;6.284;2022-09-17T08:47:25;8.48;;;1.65;;
52158;SDS011;38145;53.182;6.284;2022-09-17T08:49:59;9.20;;;1.05;;
52158;SDS011;38145;53.182;6.284;2022-09-17T08:55:03;10.15;;;1.45;;
52158;SDS011;38145;53.182;6.284;2022-09-17T08:57:42;8.63;;;2.40;;
52158;SDS011;38145;53.182;6.284;2022-09-17T09:00:14;14.50;;;1.77;;
52158;SDS011;38145;53.182;6.284;2022-09-17T09:02:48;11.45;;;1.80;;
52158;SDS011;38145;53.182;6.284;2022-09-17T09:08:04;16.88;;;1.77;;
52158;SDS011;38145;53.182;6.284;2022-09-17T09:10:49;9.57;;;1.50;;
52158;SDS011;38145;53.182;6.284;2022-09-17T09:13:20;5.72;;;1.02;;
52158;SDS011;38145;53.182;6.284;2022-09-17T09:15:59;6.63;;;1.10;;
52158;SDS011;38145;53.182;6.284;2022-09-17T09:18:30;6.70;;;1.95;;
52158;SDS011;38145;53.182;6.284;2022-09-17T09:23:56;6.07;;;1.13;;
52158;SDS011;38145;53.182;6.284;2022-09-17T09:26:37;8.77;;;1.35;;
52158;SDS011;38145;53.182;6.284;2022-09-17T09:31:55;6.53;;;1.50;;
52158;SDS011;38145;53.182;6.284;2022-09-17T09:34:30;7.20;;;1.40;;
52158;SDS011;38145;53.182;6.284;2022-09-17T09:39:40;6.45;;;1.10;;
52158;SDS011;38145;53.182;6.284;2022-09-17T09:42:18;9.52;;;1.25;;
52158;SDS011;38145;53.182;6.284;2022-09-17T09:45:10;8.05;;;1.33;;
52158;SDS011;38145;53.182;6.284;2022-09-17T09:55:34;9.82;;;1.80;;
52158;SDS011;38145;53.182;6.284;2022-09-17T09:58:17;13.27;;;1.95;;
52158;SDS011;38145;53.182;6.284;2022-09-17T10:00:53;9.77;;;1.80;;
52158;SDS011;38145;53.182;6.284;2022-09-17T10:03:21;11.50;;;1.60;;
52158;SDS011;38145;53.182;6.284;2022-09-17T10:08:18;19.90;;;2.53;;
52158;SDS011;38145;53.182;6.284;2022-09-17T10:11:00;7.35;;;1.38;;
52158;SDS011;38145;53.182;6.284;2022-09-17T10:13:30;15.10;;;1.75;;
52158;SDS011;38145;53.182;6.284;2022-09-17T10:16:14;11.60;;;1.67;;
52158;SDS011;38145;53.182;6.284;2022-09-17T10:18:43;9.40;;;1.55;;
52158;SDS011;38145;53.182;6.284;2022-09-17T10:21:20;11.18;;;2.33;;
52158;SDS011;38145;53.182;6.284;2022-09-17T10:23:48;13.27;;;2.42;;
52158;SDS011;38145;53.182;6.284;2022-09-17T10:26:19;10.57;;;2.78;;
52158;SDS011;38145;53.182;6.284;2022-09-17T10:28:52;8.52;;;1.92;;
52158;SDS011;38145;53.182;6.284;2022-09-17T10:31:22;15.35;;;2.97;;
52158;SDS011;38145;53.182;6.284;2022-09-17T10:36:38;13.20;;;2.00;;
52158;SDS011;38145;53.182;6.284;2022-09-17T10:39:17;13.35;;;2.13;;
52158;SDS011;38145;53.182;6.284;2022-09-17T10:41:57;7.68;;;1.40;;
52158;SDS011;38145;53.182;6.284;2022-09-17T10:44:25;9.20;;;1.50;;
52158;SDS011;38145;53.182;6.284;2022-09-17T10:46:53;9.32;;;1.55;;
52158;SDS011;38145;53.182;6.284;2022-09-17T10:49:26;7.82;;;1.48;;
52158;SDS011;38145;53.182;6.284;2022-09-17T10:52:04;7.68;;;1.58;;
52158;SDS011;38145;53.182;6.284;2022-09-17T10:57:15;10.07;;;1.50;;
52158;SDS011;38145;53.182;6.284;2022-09-17T10:59:58;8.15;;;1.42;;
52158;SDS011;38145;53.182;6.284;2022-09-17T11:02:39;13.68;;;1.88;;
52158;SDS011;38145;53.182;6.284;2022-09-17T11:08:25;15.27;;;2.65;;
52158;SDS011;38145;53.182;6.284;2022-09-17T11:11:08;14.82;;;2.22;;
52158;SDS011;38145;53.182;6.284;2022-09-17T11:13:46;20.58;;;3.40;;
52158;SDS011;38145;53.182;6.284;2022-09-17T11:16:25;14.85;;;2.58;;
52158;SDS011;38145;53.182;6.284;2022-09-17T11:21:55;18.20;;;2.63;;
52158;SDS011;38145;53.182;6.284;2022-09-17T11:30:03;6.88;;;1.38;;
52158;SDS011;38145;53.182;6.284;2022-09-17T11:35:26;8.48;;;1.52;;
52158;SDS011;38145;53.182;6.284;2022-09-17T11:38:00;11.18;;;1.80;;
52158;SDS011;38145;53.182;6.284;2022-09-17T11:40:34;12.32;;;2.90;;
52158;SDS011;38145;53.182;6.284;2022-09-17T11:43:15;12.73;;;3.17;;
52158;SDS011;38145;53.182;6.284;2022-09-17T11:46:00;10.27;;;2.60;;
52158;SDS011;38145;53.182;6.284;2022-09-17T11:48:34;12.57;;;1.80;;
52158;SDS011;38145;53.182;6.284;2022-09-17T11:51:19;11.35;;;1.98;;
52158;SDS011;38145;53.182;6.284;2022-09-17T11:54:04;8.15;;;1.65;;
52158;SDS011;38145;53.182;6.284;2022-09-17T11:56:43;12.65;;;2.40;;
52158;SDS011;38145;53.182;6.284;2022-09-17T11:59:23;11.95;;;2.35;;
52158;SDS011;38145;53.182;6.284;2022-09-17T12:02:02;16.05;;;2.50;;
52158;SDS011;38145;53.182;6.284;2022-09-17T12:04:37;17.05;;;3.47;;
52158;SDS011;38145;53.182;6.284;2022-09-17T12:09:56;18.88;;;2.45;;
52158;SDS011;38145;53.182;6.284;2022-09-17T12:12:26;10.18;;;1.48;;
52158;SDS011;38145;53.182;6.284;2022-09-17T12:14:58;15.43;;;2.55;;
52158;SDS011;38145;53.182;6.284;2022-09-17T12:20:07;11.32;;;2.25;;
52158;SDS011;38145;53.182;6.284;2022-09-17T12:22:53;13.82;;;2.42;;
52158;SDS011;38145;53.182;6.284;2022-09-17T12:25:21;12.80;;;2.30;;
52158;SDS011;38145;53.182;6.284;2022-09-17T12:30:28;11.23;;;1.77;;
52158;SDS011;38145;53.182;6.284;2022-09-17T12:33:03;10.82;;;1.85;;
52158;SDS011;38145;53.182;6.284;2022-09-17T12:46:16;15.18;;;2.88;;
52158;SDS011;38145;53.182;6.284;2022-09-17T12:57:11;10.25;;;2.28;;
52158;SDS011;38145;53.182;6.284;2022-09-17T12:59:49;21.67;;;3.42;;
52158;SDS011;38145;53.182;6.284;2022-09-17T13:02:33;15.80;;;2.72;;
52158;SDS011;38145;53.182;6.284;2022-09-17T13:05:20;10.60;;;1.83;;
52158;SDS011;38145;53.182;6.284;2022-09-17T13:08:12;8.75;;;2.13;;
52158;SDS011;38145;53.182;6.284;2022-09-17T13:10:49;14.05;;;2.10;;
52158;SDS011;38145;53.182;6.284;2022-09-17T13:13:38;18.88;;;2.72;;
52158;SDS011;38145;53.182;6.284;2022-09-17T13:16:26;15.75;;;2.80;;
52158;SDS011;38145;53.182;6.284;2022-09-17T13:24:19;12.57;;;2.72;;
52158;SDS011;38145;53.182;6.284;2022-09-17T13:26:49;11.50;;;2.03;;
52158;SDS011;38145;53.182;6.284;2022-09-17T13:32:40;10.23;;;1.98;;
52158;SDS011;38145;53.182;6.284;2022-09-17T13:37:34;9.10;;;2.05;;
52158;SDS011;38145;53.182;6.284;2022-09-17T13:40:03;14.30;;;2.28;;
52158;SDS011;38145;53.182;6.284;2022-09-17T13:42:42;9.57;;;2.03;;
52158;SDS011;38145;53.182;6.284;2022-09-17T13:45:13;10.15;;;2.08;;
52158;SDS011;38145;53.182;6.284;2022-09-17T13:47:52;11.88;;;2.47;;
52158;SDS011;38145;53.182;6.284;2022-09-17T13:55:37;11.45;;;3.03;;
52158;SDS011;38145;53.182;6.284;2022-09-17T13:58:07;12.00;;;2.38;;
52158;SDS011;38145;53.182;6.284;2022-09-17T14:08:34;9.57;;;2.00;;
52158;SDS011;38145;53.182;6.284;2022-09-17T14:13:47;10.52;;;1.80;;
52158;SDS011;38145;53.182;6.284;2022-09-17T14:21:41;8.90;;;1.80;;
52158;SDS011;38145;53.182;6.284;2022-09-17T14:24:19;14.18;;;2.80;;
52158;SDS011;38145;53.182;6.284;2022-09-17T14:26:52;6.00;;;1.20;;
52158;SDS011;38145;53.182;6.284;2022-09-17T14:32:20;16.33;;;2.65;;
52158;SDS011;38145;53.182;6.284;2022-09-17T14:34:54;8.95;;;1.63;;
52158;SDS011;38145;53.182;6.284;2022-09-17T14:37:21;8.57;;;1.88;;
52158;SDS011;38145;53.182;6.284;2022-09-17T14:39:48;8.52;;;1.20;;
52158;SDS011;38145;53.182;6.284;2022-09-17T14:42:18;9.57;;;2.58;;
52158;SDS011;38145;53.182;6.284;2022-09-17T14:44:50;8.48;;;1.90;;
52158;SDS011;38145;53.182;6.284;2022-09-17T14:47:22;7.15;;;1.35;;
52158;SDS011;38145;53.182;6.284;2022-09-17T14:49:50;7.80;;;1.40;;
52158;SDS011;38145;53.182;6.284;2022-09-17T14:52:18;7.72;;;1.20;;
52158;SDS011;38145;53.182;6.284;2022-09-17T14:55:07;8.57;;;1.45;;
52158;SDS011;38145;53.182;6.284;2022-09-17T14:57:43;10.75;;;1.52;;
52158;SDS011;38145;53.182;6.284;2022-09-17T15:00:14;9.80;;;1.63;;
52158;SDS011;38145;53.182;6.284;2022-09-17T15:02:43;9.45;;;2.05;;
52158;SDS011;38145;53.182;6.284;2022-09-17T15:05:18;8.63;;;1.85;;
52158;SDS011;38145;53.182;6.284;2022-09-17T15:07:45;10.45;;;1.65;;
52158;SDS011;38145;53.182;6.284;2022-09-17T15:10:12;8.82;;;1.65;;
52158;SDS011;38145;53.182;6.284;2022-09-17T15:12:41;5.30;;;0.95;;
52158;SDS011;38145;53.182;6.284;2022-09-17T15:15:16;5.20;;;1.08;;
52158;SDS011;38145;53.182;6.284;2022-09-17T15:17:44;7.55;;;1.38;;
52158;SDS011;38145;53.182;6.284;2022-09-17T15:20:14;10.93;;;1.65;;
52158;SDS011;38145;53.182;6.284;2022-09-17T15:22:44;4.10;;;1.00;;
52158;SDS011;38145;53.182;6.284;2022-09-17T15:25:21;5.32;;;1.48;;
52158;SDS011;38145;53.182;6.284;2022-09-17T15:27:50;6.63;;;1.20;;
52158;SDS011;38145;53.182;6.284;2022-09-17T15:30:21;6.07;;;1.50;;
52158;SDS011;38145;53.182;6.284;2022-09-17T15:40:22;7.43;;;1.35;;
52158;SDS011;38145;53.182;6.284;2022-09-17T15:42:52;8.60;;;1.38;;
52158;SDS011;38145;53.182;6.284;2022-09-17T15:45:26;11.60;;;1.83;;
52158;SDS011;38145;53.182;6.284;2022-09-17T15:47:56;15.07;;;1.80;;
52158;SDS011;38145;53.182;6.284;2022-09-17T15:50:25;9.48;;;1.40;;
52158;SDS011;38145;53.182;6.284;2022-09-17T15:55:35;7.22;;;1.90;;
52158;SDS011;38145;53.182;6.284;2022-09-17T15:58:04;10.95;;;2.25;;
52158;SDS011;38145;53.182;6.284;2022-09-17T16:00:45;11.13;;;2.33;;
52158;SDS011;38145;53.182;6.284;2022-09-17T16:03:49;11.18;;;2.22;;
52158;SDS011;38145;53.182;6.284;2022-09-17T16:08:45;11.30;;;2.10;;
52158;SDS011;38145;53.182;6.284;2022-09-17T16:11:13;12.88;;;2.33;;
52158;SDS011;38145;53.182;6.284;2022-09-17T16:13:40;15.23;;;1.90;;
52158;SDS011;38145;53.182;6.284;2022-09-17T16:16:07;11.32;;;2.13;;
52158;SDS011;38145;53.182;6.284;2022-09-17T16:18:41;14.35;;;1.98;;
52158;SDS011;38145;53.182;6.284;2022-09-17T16:21:19;11.07;;;2.10;;
52158;SDS011;38145;53.182;6.284;2022-09-17T16:23:45;7.22;;;2.10;;
52158;SDS011;38145;53.182;6.284;2022-09-17T16:26:14;10.70;;;1.75;;
52158;SDS011;38145;53.182;6.284;2022-09-17T16:28:45;9.52;;;1.67;;
52158;SDS011;38145;53.182;6.284;2022-09-17T16:31:13;13.45;;;2.28;;
52158;SDS011;38145;53.182;6.284;2022-09-17T16:33:40;11.48;;;3.05;;
52158;SDS011;38145;53.182;6.284;2022-09-17T16:36:06;11.77;;;1.90;;
52158;SDS011;38145;53.182;6.284;2022-09-17T16:38:33;16.02;;;2.40;;
52158;SDS011;38145;53.182;6.284;2022-09-17T16:41:03;8.95;;;1.85;;
52158;SDS011;38145;53.182;6.284;2022-09-17T16:43:30;7.72;;;1.73;;
52158;SDS011;38145;53.182;6.284;2022-09-17T16:45:58;11.15;;;2.00;;
52158;SDS011;38145;53.182;6.284;2022-09-17T16:48:25;9.18;;;1.50;;
52158;SDS011;38145;53.182;6.284;2022-09-17T16:50:51;10.52;;;1.80;;
52158;SDS011;38145;53.182;6.284;2022-09-17T16:53:17;7.82;;;2.13;;
52158;SDS011;38145;53.182;6.284;2022-09-17T16:58:12;13.00;;;2.03;;
52158;SDS011;38145;53.182;6.284;2022-09-17T17:00:40;7.60;;;1.60;;
52158;SDS011;38145;53.182;6.284;2022-09-17T17:03:08;12.93;;;2.20;;
52158;SDS011;38145;53.182;6.284;2022-09-17T17:05:37;9.57;;;2.20;;
52158;SDS011;38145;53.182;6.284;2022-09-17T17:08:04;10.18;;;1.73;;
52158;SDS011;38145;53.182;6.284;2022-09-17T17:10:32;9.15;;;1.73;;
52158;SDS011;38145;53.182;6.284;2022-09-17T17:13:00;6.70;;;1.50;;
52158;SDS011;38145;53.182;6.284;2022-09-17T17:15:26;10.82;;;3.03;;
52158;SDS011;38145;53.182;6.284;2022-09-17T17:17:52;10.85;;;2.38;;
52158;SDS011;38145;53.182;6.284;2022-09-17T17:20:19;7.80;;;1.85;;
52158;SDS011;38145;53.182;6.284;2022-09-17T17:22:47;11.20;;;1.35;;
52158;SDS011;38145;53.182;6.284;2022-09-17T17:25:18;7.18;;;1.83;;
52158;SDS011;38145;53.182;6.284;2022-09-17T17:27:47;10.40;;;1.90;;
52158;SDS011;38145;53.182;6.284;2022-09-17T17:30:15;10.50;;;1.52;;